Portada
METAR-TAF:

METAR-TAF

Aeropuertos :

Middleton Island, Alaska, Estados Unidos

latitud: 59-26N, longitud: 146-18W, altitud: 27 m

Observación

El informe se hizo hace 20 minutos, a las 22:55 UTC
Viento 26 kt del oeste con ráfagas de 55 kt, variando entre oeste-suroeste y noroeste
Temperatura 1°C
Humedad 80%
Presión 1001 hPa
Visibilidad: 2.8 km
Cielo nuboso a una altura de 1300 ft
poca nieve, neblina

METAR: PAMD 242255Z AUTO 28026G55KT 250V310 1 3/4SM -SN BR BKN013 01/M02 A2957 RMK AO2 PK WND 27055/2255 VIS 1/2V5 RAE53SNB53 FZRANO PNO $

Hora: 14:15 (23:15 UTC)


TAF: falta

Observaciones y pronósticos meteorológicos de más de 4000 aeropuertos (mensajes METAR y TAF).

Los puntos amarillos y rojos representan las estaciones disponibles.

Ponga el ratón en el punto deseado para ver el nombre de la estación.

Haga clic para ver las observaciones y los pronósticos meteorológicos.

Para cambiar el mapa : haga clic en los botones verdes con una cruz de color negro para hacer un zoom, en el botón verde con un guión para alejar o en las flechas verdes para mapas adyacentes.


METAR-TAF: